createdAt,value
2023-05-03T00:01:38.336Z,91806.09
2023-05-03T00:04:05.402Z,91799.91
2023-05-03T00:06:32.490Z,91811.31
2023-05-03T00:08:59.291Z,91781.22
2023-05-03T00:11:27.220Z,91786.16
2023-05-03T00:13:53.917Z,91789.88
2023-05-03T00:16:21.257Z,91791.22
2023-05-03T00:18:49.311Z,91787.56
2023-05-03T00:21:16.798Z,91758.78
2023-05-03T00:23:43.515Z,91792.97
2023-05-03T00:26:10.227Z,91789.56
2023-05-03T00:28:37.384Z,91798.81
2023-05-03T00:31:08.718Z,91783.09
2023-05-03T00:33:37.237Z,91802.00
2023-05-03T00:36:11.123Z,91792.25
2023-05-03T00:38:38.790Z,91776.06
2023-05-03T00:41:05.957Z,91780.56
2023-05-03T00:43:35.773Z,91774.41
2023-05-03T00:46:15.780Z,91773.63
2023-05-03T00:48:46.711Z,91768.31
2023-05-03T00:51:15.183Z,91756.09
2023-05-03T00:53:43.076Z,91752.03
2023-05-03T00:56:12.060Z,91754.44
2023-05-03T00:58:40.638Z,91747.31
2023-05-03T01:01:07.966Z,91749.44
2023-05-03T01:03:38.060Z,91751.84
2023-05-03T01:06:33.126Z,91752.50
2023-05-03T01:09:26.398Z,91739.53
2023-05-03T01:12:17.494Z,91736.06
2023-05-03T01:15:09.825Z,91736.13
2023-05-03T01:17:42.316Z,91685.84
2023-05-03T01:20:14.180Z,91737.78
2023-05-03T01:22:56.560Z,91724.13
2023-05-03T01:25:23.273Z,91716.75
2023-05-03T01:27:50.270Z,91719.31
2023-05-03T01:30:17.516Z,91718.53
2023-05-03T01:33:03.111Z,91721.16
2023-05-03T01:35:37.270Z,91719.28
2023-05-03T01:38:05.134Z,91723.34
2023-05-03T01:40:38.878Z,91712.00
2023-05-03T01:43:06.887Z,91719.84
2023-05-03T01:45:33.840Z,91715.38
2023-05-03T01:48:00.828Z,91715.56
2023-05-03T01:50:27.552Z,91707.34
2023-05-03T01:52:54.434Z,91721.16
2023-05-03T01:55:21.104Z,91718.31
2023-05-03T01:57:47.974Z,91709.69
2023-05-03T02:00:14.973Z,91712.72
2023-05-03T02:02:41.995Z,91719.59
2023-05-03T02:05:10.109Z,91728.41
2023-05-03T02:07:37.034Z,91718.19
2023-05-03T02:10:05.880Z,91724.53
2023-05-03T02:12:33.492Z,91730.97
2023-05-03T02:15:00.783Z,91710.75
2023-05-03T02:17:28.168Z,91729.44
2023-05-03T02:19:54.998Z,91724.88
2023-05-03T02:22:21.746Z,91722.53
2023-05-03T02:24:49.066Z,91716.75
2023-05-03T02:27:15.975Z,91702.59
2023-05-03T02:29:43.000Z,91724.44
2023-05-03T02:32:09.912Z,91717.16
2023-05-03T02:34:36.963Z,91724.88
2023-05-03T02:37:04.297Z,91728.16
2023-05-03T02:39:31.525Z,91713.44
2023-05-03T02:41:58.791Z,91744.97
2023-05-03T02:44:26.066Z,91719.59
2023-05-03T02:46:54.751Z,91753.44
2023-05-03T02:49:21.966Z,91759.16
2023-05-03T02:51:48.987Z,91768.72
2023-05-03T02:54:15.680Z,91754.28
2023-05-03T02:56:42.406Z,91768.25
2023-05-03T02:59:09.144Z,91743.25
2023-05-03T03:01:35.936Z,91754.69
2023-05-03T03:04:02.909Z,91755.50
2023-05-03T03:06:29.971Z,91746.78
2023-05-03T03:08:56.828Z,91743.56
2023-05-03T03:11:24.155Z,91735.47
2023-05-03T03:13:51.027Z,91743.53
2023-05-03T03:16:25.062Z,91733.22
2023-05-03T03:18:51.823Z,91733.41
2023-05-03T03:21:19.149Z,91748.28
2023-05-03T03:23:45.989Z,91753.75
2023-05-03T03:26:12.868Z,91774.84
2023-05-03T03:28:39.652Z,91783.28
2023-05-03T03:31:06.691Z,91761.09
2023-05-03T03:33:33.505Z,91778.75
2023-05-03T03:36:00.204Z,91785.41
2023-05-03T03:38:27.046Z,91789.22
2023-05-03T03:40:54.447Z,91802.97
2023-05-03T03:43:21.208Z,91795.50
2023-05-03T03:45:48.478Z,91798.41
2023-05-03T03:48:15.390Z,91808.38
2023-05-03T03:50:42.229Z,91819.22
2023-05-03T03:53:11.198Z,91809.56
2023-05-03T03:55:37.993Z,91787.97
2023-05-03T03:58:05.967Z,91835.72
2023-05-03T04:00:34.284Z,91838.31
2023-05-03T04:03:04.647Z,91848.13
2023-05-03T04:05:33.728Z,91848.03
2023-05-03T04:08:01.484Z,91845.66
2023-05-03T04:10:28.363Z,91861.78
2023-05-03T04:12:55.769Z,91864.53
2023-05-03T04:15:22.799Z,91867.09
2023-05-03T04:17:49.771Z,91879.69
2023-05-03T04:20:18.216Z,91874.09
2023-05-03T04:22:45.086Z,91893.31
2023-05-03T04:25:17.385Z,91892.31
2023-05-03T04:27:46.060Z,91882.09
2023-05-03T04:30:15.530Z,91887.59
2023-05-03T04:32:43.323Z,91895.44
2023-05-03T04:35:12.770Z,91892.00
2023-05-03T04:37:41.099Z,91906.91
2023-05-03T04:40:09.752Z,91889.34
2023-05-03T04:42:44.563Z,91873.78
2023-05-03T04:45:11.787Z,91888.00
2023-05-03T04:47:38.539Z,91880.69
2023-05-03T04:50:08.677Z,91902.88
2023-05-03T04:52:35.793Z,91889.69
2023-05-03T04:55:03.755Z,91898.78
2023-05-03T04:57:32.349Z,91890.44
2023-05-03T04:59:59.068Z,91901.06
2023-05-03T05:02:27.529Z,91875.63
2023-05-03T05:04:54.376Z,91881.59
2023-05-03T05:07:21.134Z,91873.75
2023-05-03T05:09:47.923Z,91863.47
2023-05-03T05:12:14.910Z,91867.88
2023-05-03T05:14:41.825Z,91860.94
2023-05-03T05:17:08.922Z,91860.00
2023-05-03T05:19:36.179Z,91844.91
2023-05-03T05:22:02.950Z,91862.84
2023-05-03T05:24:29.797Z,91856.84
2023-05-03T05:26:56.776Z,91860.78
2023-05-03T05:29:23.507Z,91851.06
2023-05-03T05:31:50.436Z,91869.81
2023-05-03T05:34:17.347Z,91858.47
2023-05-03T05:36:44.330Z,91866.78
2023-05-03T05:39:11.691Z,91846.69
2023-05-03T05:41:38.663Z,91842.75
2023-05-03T05:44:05.417Z,91847.72
2023-05-03T05:46:32.249Z,91822.13
2023-05-03T05:48:59.147Z,91826.19
2023-05-03T05:51:26.715Z,91824.41
2023-05-03T05:53:53.476Z,91840.91
2023-05-03T05:56:20.392Z,91833.69
2023-05-03T05:58:47.144Z,91842.56
2023-05-03T06:01:14.022Z,91834.16
2023-05-03T06:03:40.729Z,91823.19
2023-05-03T06:06:08.791Z,91817.41
2023-05-03T06:08:36.298Z,91809.72
2023-05-03T06:11:03.219Z,91819.09
2023-05-03T06:13:29.955Z,91828.50
2023-05-03T06:15:56.727Z,91826.84
2023-05-03T06:18:23.556Z,91823.78
2023-05-03T06:20:50.887Z,91819.75
2023-05-03T06:23:17.779Z,91821.69
2023-05-03T06:25:47.368Z,91782.47
2023-05-03T06:28:14.125Z,91791.16
2023-05-03T06:30:41.010Z,91774.19
2023-05-03T06:33:08.286Z,91772.84
2023-05-03T06:35:35.272Z,91793.56
2023-05-03T06:38:02.068Z,91809.00
2023-05-03T06:40:29.003Z,91809.66
2023-05-03T06:42:55.835Z,91806.97
2023-05-03T06:45:22.691Z,91808.03
2023-05-03T06:47:50.352Z,91821.91
2023-05-03T06:50:17.539Z,91810.72
2023-05-03T06:52:44.238Z,91818.41
2023-05-03T06:55:11.221Z,91818.63
2023-05-03T06:57:39.149Z,91832.84
2023-05-03T07:00:07.433Z,91839.00
2023-05-03T07:02:34.412Z,91841.66
2023-05-03T07:05:01.409Z,91828.47
2023-05-03T07:07:28.216Z,91815.91
2023-05-03T07:09:55.050Z,91823.59
2023-05-03T07:12:27.497Z,91819.19
2023-05-03T07:14:57.681Z,91804.56
2023-05-03T07:17:25.545Z,91807.53
2023-05-03T07:19:52.724Z,91812.41
2023-05-03T07:22:25.552Z,91817.00
2023-05-03T07:24:54.773Z,91825.19
2023-05-03T07:27:21.744Z,91832.81
2023-05-03T07:29:48.476Z,91822.28
2023-05-03T07:32:15.661Z,91831.66
2023-05-03T07:34:42.333Z,91811.34
2023-05-03T07:37:09.348Z,91820.78
2023-05-03T07:39:36.483Z,91839.63
2023-05-03T07:42:03.505Z,91843.75
2023-05-03T07:44:30.388Z,91848.53
2023-05-03T07:46:57.339Z,91840.38
2023-05-03T07:49:24.345Z,91827.75
2023-05-03T07:51:51.693Z,91850.91
2023-05-03T07:54:18.708Z,91812.59
2023-05-03T07:56:45.770Z,91825.44
2023-05-03T07:59:12.671Z,91847.41
2023-05-03T08:01:39.573Z,91838.38
2023-05-03T08:04:06.708Z,91848.97
2023-05-03T08:06:35.934Z,91854.88
2023-05-03T08:09:04.440Z,91842.50
2023-05-03T08:11:31.720Z,91849.44
2023-05-03T08:13:58.509Z,91829.88
2023-05-03T08:16:25.472Z,91835.81
2023-05-03T08:18:52.375Z,91840.38
2023-05-03T08:21:19.442Z,91834.25
2023-05-03T08:23:46.430Z,91831.78
2023-05-03T08:26:14.271Z,91821.00
2023-05-03T08:28:41.540Z,91821.69
2023-05-03T08:31:09.071Z,91821.84
2023-05-03T08:33:36.089Z,91831.38
2023-05-03T08:36:03.099Z,91824.31
2023-05-03T08:38:29.992Z,91807.75
2023-05-03T08:40:59.974Z,91827.44
2023-05-03T08:43:28.829Z,91835.53
2023-05-03T08:45:55.846Z,91830.69
2023-05-03T08:48:24.464Z,91825.38
2023-05-03T08:50:53.930Z,91816.97
2023-05-03T08:53:20.924Z,91823.91
2023-05-03T08:55:47.740Z,91830.00
2023-05-03T08:58:14.506Z,91819.13
2023-05-03T09:00:45.324Z,91814.69
2023-05-03T09:03:13.022Z,91818.19
2023-05-03T09:05:41.644Z,91830.88
2023-05-03T09:08:10.866Z,91833.13
2023-05-03T09:10:42.743Z,91820.97
2023-05-03T09:13:10.597Z,91815.53
2023-05-03T09:15:37.579Z,91820.88
2023-05-03T09:18:11.657Z,91825.41
2023-05-03T09:20:41.007Z,91840.97
2023-05-03T09:23:09.871Z,91849.81
2023-05-03T09:25:50.142Z,91852.41
2023-05-03T09:28:18.418Z,91843.59
2023-05-03T09:30:46.561Z,91855.75
2023-05-03T09:33:20.654Z,91851.53
2023-05-03T09:36:04.910Z,91863.13
2023-05-03T09:38:35.124Z,91863.63
2023-05-03T09:41:02.095Z,91855.53
2023-05-03T09:43:28.973Z,91859.44
2023-05-03T09:46:13.099Z,91854.69
2023-05-03T09:48:41.030Z,91863.19
2023-05-03T09:51:08.873Z,91858.47
2023-05-03T09:53:36.850Z,91850.22
2023-05-03T09:56:06.979Z,91852.41
2023-05-03T09:58:35.431Z,91836.63
2023-05-03T10:01:02.892Z,91835.25
2023-05-03T10:03:45.528Z,91836.81
2023-05-03T10:06:23.830Z,91835.44
2023-05-03T10:09:06.046Z,91832.50
2023-05-03T10:11:36.486Z,91829.34
2023-05-03T10:14:07.461Z,91828.44
2023-05-03T10:16:38.799Z,91822.78
2023-05-03T10:19:13.483Z,91834.84
2023-05-03T10:22:07.136Z,91828.34
2023-05-03T10:25:02.672Z,91829.06
2023-05-03T10:28:06.270Z,91818.84
2023-05-03T10:30:35.409Z,91817.25
2023-05-03T10:33:32.832Z,91815.50
2023-05-03T10:36:01.438Z,91821.50
2023-05-03T10:38:29.626Z,91788.91
2023-05-03T10:40:57.115Z,91824.75
2023-05-03T10:43:29.944Z,91822.00
2023-05-03T10:46:00.778Z,91807.38
2023-05-03T10:48:28.866Z,91821.00
2023-05-03T10:50:57.472Z,91813.47
2023-05-03T10:53:43.612Z,91817.16
2023-05-03T10:56:12.213Z,91819.41
2023-05-03T10:58:44.710Z,91815.63
2023-05-03T11:01:14.060Z,91810.47
2023-05-03T11:04:00.266Z,91807.03
2023-05-03T11:06:37.943Z,91799.13
2023-05-03T11:09:09.465Z,91804.75
2023-05-03T11:11:39.640Z,91803.78
2023-05-03T11:14:08.592Z,91791.59
2023-05-03T11:16:48.256Z,91797.50
2023-05-03T11:19:15.765Z,91800.47
2023-05-03T11:21:43.155Z,91798.38
2023-05-03T11:24:10.668Z,91788.09
2023-05-03T11:26:38.795Z,91787.00
2023-05-03T11:29:05.974Z,91776.72
2023-05-03T11:31:33.180Z,91782.69
2023-05-03T11:33:59.974Z,91784.38
2023-05-03T11:36:27.952Z,91779.56
2023-05-03T11:38:54.839Z,91770.66
2023-05-03T11:41:21.888Z,91774.75
2023-05-03T11:44:00.452Z,91769.44
2023-05-03T11:46:35.001Z,91761.16
2023-05-03T11:49:03.305Z,91761.28
2023-05-03T11:51:31.432Z,91766.66
2023-05-03T11:54:12.990Z,91759.25
2023-05-03T11:56:47.598Z,91751.72
2023-05-03T11:59:14.490Z,91740.50
2023-05-03T12:01:42.133Z,91749.66
2023-05-03T12:04:10.237Z,91737.97
2023-05-03T12:06:38.315Z,91739.50
2023-05-03T12:09:14.848Z,91753.44
2023-05-03T12:11:43.659Z,91738.97
2023-05-03T12:14:11.902Z,91746.94
2023-05-03T12:16:51.841Z,91751.81
2023-05-03T12:19:32.318Z,91747.41
2023-05-03T12:24:33.174Z,91743.00
2023-05-03T12:27:02.856Z,91743.72
2023-05-03T12:29:34.696Z,91725.91
2023-05-03T12:32:04.163Z,91712.34
2023-05-03T12:34:35.759Z,91714.91
2023-05-03T12:37:06.181Z,91725.34
2023-05-03T12:39:34.206Z,91707.44
2023-05-03T12:44:35.180Z,91697.75
2023-05-03T12:47:02.873Z,91685.34
2023-05-03T12:49:31.021Z,91692.50
2023-05-03T12:54:33.478Z,91671.47
2023-05-03T12:57:08.610Z,91670.31
2023-05-03T12:59:42.386Z,91675.91
2023-05-03T13:04:57.650Z,91673.75
2023-05-03T13:07:32.249Z,91674.13
2023-05-03T13:12:34.222Z,91665.38
2023-05-03T13:15:05.729Z,91669.88
2023-05-03T13:17:33.873Z,91663.56
2023-05-03T13:20:01.454Z,91655.66
2023-05-03T13:22:28.864Z,91656.41
2023-05-03T13:24:56.333Z,91620.25
2023-05-03T13:27:23.082Z,91654.53
2023-05-03T13:29:50.106Z,91637.22
2023-05-03T13:32:17.156Z,91657.16
2023-05-03T13:34:44.216Z,91644.72
2023-05-03T13:37:11.794Z,91640.56
2023-05-03T13:39:38.607Z,91636.81
2023-05-03T13:42:05.380Z,91640.19
2023-05-03T13:44:32.113Z,91649.25
2023-05-03T13:46:58.981Z,91642.88
2023-05-03T13:49:25.775Z,91649.63
2023-05-03T13:51:53.167Z,91638.72
2023-05-03T13:54:20.723Z,91645.84
2023-05-03T13:56:47.654Z,91633.03
2023-05-03T13:59:14.496Z,91629.28
2023-05-03T14:01:43.042Z,91646.22
2023-05-03T14:04:10.457Z,91637.50
2023-05-03T14:06:40.277Z,91646.56
2023-05-03T14:09:11.936Z,91639.84
2023-05-03T14:11:41.736Z,91629.31
2023-05-03T14:14:08.759Z,91640.94
2023-05-03T14:16:41.530Z,91633.03
2023-05-03T14:19:12.648Z,91643.97
2023-05-03T14:21:41.834Z,91648.88
2023-05-03T14:24:09.240Z,91639.84
2023-05-03T14:26:37.507Z,91631.13
2023-05-03T14:29:06.055Z,91633.69
2023-05-03T14:31:34.155Z,91641.56
2023-05-03T14:34:01.402Z,91625.75
2023-05-03T14:36:36.087Z,91616.41
2023-05-03T14:39:04.208Z,91616.44
2023-05-03T14:41:33.359Z,91623.56
2023-05-03T14:44:00.457Z,91603.63
2023-05-03T14:46:27.653Z,91595.72
2023-05-03T14:48:54.371Z,91612.28
2023-05-03T14:51:21.212Z,91600.53
2023-05-03T14:53:47.972Z,91613.38
2023-05-03T14:56:14.814Z,91618.63
2023-05-03T14:58:41.699Z,91605.81
2023-05-03T15:01:08.821Z,91605.81
2023-05-03T15:03:35.857Z,91610.31
2023-05-03T15:06:02.809Z,91606.22
2023-05-03T15:08:29.591Z,91593.81
2023-05-03T15:10:56.597Z,91605.88
2023-05-03T15:13:24.464Z,91603.63
2023-05-03T15:15:52.202Z,91600.56
2023-05-03T15:18:20.394Z,91599.81
2023-05-03T15:20:47.640Z,91604.25
2023-05-03T15:23:14.421Z,91607.25
2023-05-03T15:25:41.652Z,91611.84
2023-05-03T15:28:08.439Z,91609.84
2023-05-03T15:30:35.189Z,91628.94
2023-05-03T15:33:02.202Z,91623.00
2023-05-03T15:35:29.138Z,91621.97
2023-05-03T15:37:55.857Z,91621.03
2023-05-03T15:40:26.066Z,91624.94
2023-05-03T15:42:53.573Z,91625.69
2023-05-03T15:45:23.229Z,91615.50
2023-05-03T15:47:50.333Z,91607.97
2023-05-03T15:50:17.370Z,91614.72
2023-05-03T15:52:46.439Z,91617.34
2023-05-03T15:55:13.304Z,91604.56
2023-05-03T15:57:40.336Z,91613.94
2023-05-03T16:00:11.970Z,91613.84
2023-05-03T16:02:42.510Z,91604.06
2023-05-03T16:05:10.496Z,91608.50
2023-05-03T16:07:37.424Z,91597.91
2023-05-03T16:10:04.514Z,91596.34
2023-05-03T16:12:31.542Z,91597.53
2023-05-03T16:14:58.423Z,91589.28
2023-05-03T16:17:25.882Z,91591.47
2023-05-03T16:19:52.828Z,91559.44
2023-05-03T16:22:19.586Z,91588.84
2023-05-03T16:24:47.069Z,91591.72
2023-05-03T16:27:13.873Z,91603.78
2023-05-03T16:29:40.728Z,91590.81
2023-05-03T16:32:09.826Z,91584.16
2023-05-03T16:34:37.831Z,91604.56
2023-05-03T16:37:04.977Z,91609.94
2023-05-03T16:39:35.836Z,91601.66
2023-05-03T16:42:02.827Z,91601.66
2023-05-03T16:44:29.810Z,91604.69
2023-05-03T16:46:56.865Z,91607.19
2023-05-03T16:49:23.686Z,91614.72
2023-05-03T16:51:50.605Z,91615.06
2023-05-03T16:54:17.563Z,91618.88
2023-05-03T16:56:44.558Z,91626.25
2023-05-03T16:59:12.022Z,91626.97
2023-05-03T17:01:38.884Z,91612.00
2023-05-03T17:04:06.687Z,91617.69
2023-05-03T17:06:33.764Z,91622.47
2023-05-03T17:09:01.374Z,91615.28
2023-05-03T17:11:28.382Z,91619.44
2023-05-03T17:13:55.202Z,91632.97
2023-05-03T17:16:23.169Z,91626.81
2023-05-03T17:18:50.076Z,91625.03
2023-05-03T17:21:16.925Z,91616.00
2023-05-03T17:23:43.618Z,91630.34
2023-05-03T17:26:11.057Z,91631.72
2023-05-03T17:28:37.839Z,91635.13
2023-05-03T17:31:05.745Z,91628.63
2023-05-03T17:33:34.056Z,91632.91
2023-05-03T17:36:04.610Z,91648.69
2023-05-03T17:38:33.438Z,91639.16
2023-05-03T17:41:05.093Z,91653.38
2023-05-03T17:43:32.112Z,91659.25
2023-05-03T17:46:10.583Z,91662.09
2023-05-03T17:48:40.633Z,91654.06
2023-05-03T17:51:08.221Z,91659.03
2023-05-03T17:53:35.529Z,91660.78
2023-05-03T17:56:02.363Z,91675.16
2023-05-03T17:58:29.105Z,91671.41
2023-05-03T18:00:57.172Z,91668.72
2023-05-03T18:03:24.421Z,91673.88
2023-05-03T18:05:51.158Z,91663.66
2023-05-03T18:08:18.135Z,91669.25
2023-05-03T18:10:45.459Z,91671.75
2023-05-03T18:13:13.296Z,91662.47
2023-05-03T18:15:41.873Z,91671.03
2023-05-03T18:18:09.495Z,91682.31
2023-05-03T18:20:36.637Z,91676.94
2023-05-03T18:23:03.822Z,91679.22
2023-05-03T18:25:31.196Z,91689.06
2023-05-03T18:27:58.360Z,91692.41
2023-05-03T18:30:28.316Z,91692.53
2023-05-03T18:32:55.938Z,91695.94
2023-05-03T18:35:23.010Z,91686.22
2023-05-03T18:37:50.165Z,91688.47
2023-05-03T18:40:17.237Z,91678.56
2023-05-03T18:43:04.275Z,91666.13
2023-05-03T18:45:31.067Z,91687.00
2023-05-03T18:47:57.974Z,91706.38
2023-05-03T18:50:24.809Z,91700.09
2023-05-03T18:52:52.016Z,91695.53
2023-05-03T18:55:18.704Z,91696.91
2023-05-03T18:57:45.590Z,91690.88
2023-05-03T19:00:13.577Z,91698.31
2023-05-03T19:02:41.020Z,91690.94
2023-05-03T19:05:12.056Z,91669.06
2023-05-03T19:07:43.067Z,91692.41
2023-05-03T19:10:10.927Z,91684.13
2023-05-03T19:12:37.896Z,91674.03
2023-05-03T19:15:05.080Z,91696.88
2023-05-03T19:17:32.002Z,91676.16
2023-05-03T19:19:58.935Z,91689.03
2023-05-03T19:22:25.777Z,91688.84
2023-05-03T19:24:52.619Z,91692.50
2023-05-03T19:27:19.991Z,91686.84
2023-05-03T19:29:46.841Z,91687.00
2023-05-03T19:32:13.617Z,91686.03
2023-05-03T19:34:40.521Z,91693.91
2023-05-03T19:37:07.195Z,91695.84
2023-05-03T19:39:35.851Z,91694.50
2023-05-03T19:42:04.323Z,91683.72
2023-05-03T19:44:31.102Z,91692.00
2023-05-03T19:46:59.008Z,91683.06
2023-05-03T19:49:25.879Z,91655.13
2023-05-03T19:51:56.114Z,91691.19
2023-05-03T19:54:23.430Z,91681.91
2023-05-03T19:56:50.362Z,91681.56
2023-05-03T19:59:18.222Z,91657.09
2023-05-03T20:01:45.499Z,91659.88
2023-05-03T20:04:12.474Z,91666.53
2023-05-03T20:06:39.328Z,91673.69
2023-05-03T20:09:06.159Z,91672.03
2023-05-03T20:11:33.039Z,91668.03
2023-05-03T20:13:59.851Z,91656.63
2023-05-03T20:16:31.567Z,91657.44
2023-05-03T20:18:59.032Z,91660.22
2023-05-03T20:21:25.747Z,91646.41
2023-05-03T20:23:52.637Z,91652.00
2023-05-03T20:26:19.531Z,91616.59
2023-05-03T20:28:47.167Z,91643.13
2023-05-03T20:31:14.033Z,91640.81
2023-05-03T20:33:41.060Z,91651.00
2023-05-03T20:36:07.996Z,91643.59
2023-05-03T20:38:34.765Z,91639.31
2023-05-03T20:41:01.704Z,91643.03
2023-05-03T20:43:28.442Z,91654.63
2023-05-03T20:45:55.468Z,91641.94
2023-05-03T20:48:22.517Z,91651.06
2023-05-03T20:50:50.133Z,91652.06
2023-05-03T20:53:18.385Z,91616.78
2023-05-03T20:55:46.134Z,91653.44
2023-05-03T20:58:12.978Z,91660.75
2023-05-03T21:00:39.781Z,91669.69
2023-05-03T21:03:06.688Z,91666.59
2023-05-03T21:05:33.459Z,91665.88
2023-05-03T21:08:00.217Z,91670.34
2023-05-03T21:10:27.035Z,91670.75
2023-05-03T21:12:53.776Z,91662.00
2023-05-03T21:15:20.847Z,91649.22
2023-05-03T21:17:47.678Z,91666.78
2023-05-03T21:20:14.506Z,91657.59
2023-05-03T21:22:41.270Z,91656.94
2023-05-03T21:25:08.469Z,91650.34
2023-05-03T21:27:35.325Z,91662.91
2023-05-03T21:30:03.089Z,91661.38
2023-05-03T21:32:30.146Z,91650.34
2023-05-03T21:34:57.718Z,91663.53
2023-05-03T21:37:24.458Z,91656.44
2023-05-03T21:40:01.437Z,91642.84
2023-05-03T21:42:29.481Z,91659.97
2023-05-03T21:44:56.282Z,91654.03
2023-05-03T21:47:23.096Z,91638.09
2023-05-03T21:49:51.516Z,91635.31
2023-05-03T21:52:18.278Z,91628.47
2023-05-03T21:54:45.127Z,91623.44
2023-05-03T21:57:11.816Z,91627.66
2023-05-03T21:59:38.633Z,91628.44
2023-05-03T22:02:05.496Z,91619.06
2023-05-03T22:04:32.440Z,91627.50
2023-05-03T22:06:59.481Z,91591.38
2023-05-03T22:09:26.388Z,91614.66
2023-05-03T22:11:53.140Z,91616.34
2023-05-03T22:14:19.861Z,91611.38
2023-05-03T22:16:46.579Z,91604.28
2023-05-03T22:19:13.469Z,91597.03
2023-05-03T22:21:40.189Z,91588.78
2023-05-03T22:24:07.706Z,91590.16
2023-05-03T22:26:34.640Z,91606.50
2023-05-03T22:29:01.839Z,91605.69
2023-05-03T22:31:30.561Z,91614.47
2023-05-03T22:33:57.708Z,91608.84
2023-05-03T22:36:24.384Z,91607.13
2023-05-03T22:38:55.455Z,91601.00
2023-05-03T22:41:22.371Z,91599.41
2023-05-03T22:43:49.125Z,91595.69
2023-05-03T22:46:16.027Z,91559.03
2023-05-03T22:48:42.771Z,91581.44
2023-05-03T22:51:09.612Z,91580.44
2023-05-03T22:53:36.427Z,91579.34
2023-05-03T22:56:04.533Z,91571.88
2023-05-03T22:58:31.377Z,91562.94
2023-05-03T23:00:58.443Z,91562.69
2023-05-03T23:03:25.687Z,91565.72
2023-05-03T23:05:53.652Z,91564.31
2023-05-03T23:08:21.260Z,91563.63
2023-05-03T23:10:55.444Z,91527.97
2023-05-03T23:13:22.426Z,91561.41
2023-05-03T23:15:49.119Z,91561.41
2023-05-03T23:18:16.033Z,91553.31
2023-05-03T23:20:42.724Z,91558.81
2023-05-03T23:23:09.716Z,91556.53
2023-05-03T23:25:36.517Z,91564.00
2023-05-03T23:28:03.193Z,91542.78
2023-05-03T23:30:30.494Z,91545.59
2023-05-03T23:32:57.660Z,91559.59
2023-05-03T23:35:24.791Z,91533.50
2023-05-03T23:37:51.693Z,91528.44
2023-05-03T23:40:18.521Z,91525.19
2023-05-03T23:42:46.427Z,91526.03
2023-05-03T23:45:13.292Z,91519.81
2023-05-03T23:47:39.964Z,91512.91
2023-05-03T23:50:07.975Z,91517.44
2023-05-03T23:52:34.824Z,91509.38
2023-05-03T23:55:02.540Z,91498.94
2023-05-03T23:57:29.305Z,91497.19
2023-05-03T23:59:56.231Z,91493.72
